Ghotki Weather



Ghotki's Current Weather

Temprature 17o haze

haze

Rain: 0 %

Min Temprature17o
Max Temprature17o
Humidity82
Wind Speed1.59 m/h
Sun Rise06:31:10
Sun Set17:41:36
Current Time: 28-Oct-2020 04:30:04
Lat/Lon: 28.01, 69.32




Ghotki's Geo Location



Ghotki's Weather Forecast

Time Overall Temp Min Temp Max Temp Humidity Wind Speed Rain
28-Oct-2020 (Wed)
05:00:00 clear sky 18.240 18.240 19.540 54 1.59 m/h 0 %
08:00:00 clear sky 23.520 23.520 25.320 32 2.35 m/h 0 %
11:00:00 clear sky 32.810 32.810 33.890 15 2.84 m/h 0 %
14:00:00 clear sky 36.530 36.530 36.690 9 4.42 m/h 0 %
17:00:00 clear sky 33.910 33.910 33.910 10 3.04 m/h 0 %
20:00:00 clear sky 26.490 26.490 26.490 16 2.9 m/h 0 %
23:00:00 clear sky 22.150 22.150 22.150 21 1.12 m/h 0 %
29-Oct-2020 (Thu)
02:00:00 clear sky 21.260 21.260 21.260 23 3.03 m/h 0 %
05:00:00 clear sky 19.140 19.140 19.140 25 2.09 m/h 0 %
08:00:00 clear sky 24.260 24.260 24.260 18 1.55 m/h 0 %
11:00:00 clear sky 32.460 32.460 32.460 11 1.52 m/h 0 %
14:00:00 clear sky 35.690 35.690 35.690 9 1.48 m/h 0 %
17:00:00 clear sky 32.370 32.370 32.370 11 0.78 m/h 0 %
20:00:00 clear sky 23.660 23.660 23.660 19 1.07 m/h 0 %
23:00:00 clear sky 24.170 24.170 24.170 18 2.65 m/h 0 %
30-Oct-2020 (Fri)
02:00:00 clear sky 20.720 20.720 20.720 23 2.48 m/h 0 %
05:00:00 clear sky 19.490 19.490 19.490 25 2.95 m/h 0 %
08:00:00 clear sky 23.410 23.410 23.410 20 3.19 m/h 0 %
11:00:00 clear sky 32.640 32.640 32.640 12 2.46 m/h 0 %
14:00:00 clear sky 35.430 35.430 35.430 10 1.05 m/h 0 %
17:00:00 clear sky 32.690 32.690 32.690 11 1.46 m/h 0 %
20:00:00 clear sky 24.250 24.250 24.250 19 2.13 m/h 0 %
23:00:00 clear sky 24.260 24.260 24.260 19 2.19 m/h 0 %
31-Oct-2020 (Sat)
02:00:00 clear sky 21.850 21.850 21.850 22 0.63 m/h 0 %
05:00:00 clear sky 19.770 19.770 19.770 24 1.79 m/h 0 %
08:00:00 clear sky 25.180 25.180 25.180 17 3.01 m/h 0 %
11:00:00 clear sky 34.100 34.100 34.100 11 0.79 m/h 0 %
14:00:00 clear sky 35.700 35.700 35.700 9 1.4 m/h 0 %
17:00:00 clear sky 33.070 33.070 33.070 11 2.1 m/h 0 %
20:00:00 clear sky 24.460 24.460 24.460 18 2.04 m/h 0 %
23:00:00 clear sky 21.590 21.590 21.590 21 0.56 m/h 0 %
01-Nov-2020 (Sun)
02:00:00 clear sky 21.190 21.190 21.190 22 1.96 m/h 0 %
05:00:00 clear sky 19.710 19.710 19.710 24 1.52 m/h 0 %
08:00:00 clear sky 25.540 25.540 25.540 17 1.33 m/h 0 %
11:00:00 clear sky 33.900 33.900 33.900 10 1.63 m/h 0 %
14:00:00 clear sky 36.000 36.000 36.000 9 3.33 m/h 0 %
17:00:00 clear sky 32.880 32.880 32.880 10 2.26 m/h 0 %
20:00:00 clear sky 23.920 23.920 23.920 18 1.83 m/h 0 %
23:00:00 clear sky 21.420 21.420 21.420 20 1.24 m/h 0 %
02-Nov-2020 (Mon)
02:00:00 clear sky 20.070 20.070 20.070 22 1.57 m/h 0 %

Famous Cities (60)